Time;durP1;ratioP1;P1;durP2;ratioP2;P2;SDS_P1;SDS_P2;PMS_P1;PMS_P2;Temp;Humidity;BMP_temperature;BMP_pressure;BME280_temperature;BME280_humidity;BME280_pressure;Samples;Min_cycle;Max_cycle;Signal;HPM_P1;HPM_P2
2023/01/26 00:00:50;;;;;;;31.90;4.03;;;;;;;9.10;100.00;101601.03;5055556;28;20055;-65
2023/01/26 00:03:16;;;;;;;39.17;3.95;;;;;;;9.01;100.00;101606.59;5055288;28;20104;-65
2023/01/26 00:05:41;;;;;;;32.72;3.70;;;;;;;9.00;100.00;101600.38;5053568;28;20498;-65
2023/01/26 00:08:07;;;;;;;34.22;3.78;;;;;;;8.89;100.00;101590.81;5054957;28;20043;-65
2023/01/26 00:10:37;;;;;;;31.55;3.80;;;;;;;8.94;100.00;101593.00;5054991;28;20350;-65
2023/01/26 00:13:03;;;;;;;36.05;3.92;;;;;;;8.94;100.00;101593.00;5054013;28;20021;-65
2023/01/26 00:15:32;;;;;;;40.55;4.70;;;;;;;8.91;100.00;101570.03;5053813;28;20025;-65
2023/01/26 00:17:57;;;;;;;46.92;4.35;;;;;;;8.88;100.00;101594.53;5054519;28;20047;-65
2023/01/26 00:20:23;;;;;;;40.90;4.28;;;;;;;8.86;100.00;101591.16;5054786;28;20386;-65
2023/01/26 00:22:48;;;;;;;30.38;3.28;;;;;;;8.93;100.00;101596.69;5054665;28;20029;-65
2023/01/26 00:25:13;;;;;;;36.00;3.75;;;;;;;8.89;100.00;101573.88;5054671;28;20454;-65
2023/01/26 00:27:39;;;;;;;33.40;4.03;;;;;;;8.92;100.00;101595.84;5052917;28;20132;-69
2023/01/26 00:30:05;;;;;;;43.60;4.78;;;;;;;8.93;100.00;101600.22;5053602;28;20032;-65
2023/01/26 00:32:30;;;;;;;42.38;4.63;;;;;;;9.02;100.00;101595.69;5053167;28;20033;-65
2023/01/26 00:34:55;;;;;;;36.47;4.00;;;;;;;9.07;100.00;101592.47;5036679;28;20480;-64
2023/01/26 00:37:21;;;;;;;38.38;4.60;;;;;;;8.97;100.00;101597.19;5054581;28;20056;-65
2023/01/26 00:39:46;;;;;;;40.85;4.18;;;;;;;8.97;100.00;101586.44;5036523;28;20032;-65
2023/01/26 00:42:14;;;;;;;32.47;3.58;;;;;;;8.97;100.00;101595.34;5053374;28;20132;-65
2023/01/26 00:44:41;;;;;;;35.30;4.13;;;;;;;8.92;100.00;101587.81;5054135;28;20098;-65
2023/01/26 00:47:09;;;;;;;45.70;4.30;;;;;;;8.81;100.00;101577.41;5054631;28;20025;-65
2023/01/26 00:49:35;;;;;;;43.05;4.47;;;;;;;8.84;100.00;101600.38;5054283;28;20028;-65
2023/01/26 00:52:01;;;;;;;41.50;4.43;;;;;;;8.90;100.00;101600.53;5054331;28;20060;-65
2023/01/26 00:54:27;;;;;;;44.78;4.32;;;;;;;8.89;100.00;101592.66;5052829;28;20056;-65
2023/01/26 00:56:52;;;;;;;44.58;4.95;;;;;;;8.87;100.00;101592.84;5054032;28;20329;-65
2023/01/26 00:59:18;;;;;;;49.05;5.32;;;;;;;8.65;100.00;101567.53;5052217;28;20060;-68
2023/01/26 01:01:44;;;;;;;48.15;4.88;;;;;;;8.79;100.00;101578.59;5052292;28;20028;-65
2023/01/26 01:04:09;;;;;;;41.70;4.10;;;;;;;8.84;100.00;101589.63;5053803;28;20091;-65
2023/01/26 01:06:36;;;;;;;50.85;4.38;;;;;;;8.68;100.00;101561.81;5053807;28;20120;-65
2023/01/26 01:09:01;;;;;;;57.30;5.72;;;;;;;8.76;100.00;101590.50;5054220;28;20107;-65
2023/01/26 01:11:27;;;;;;;39.33;4.65;;;;;;;8.68;100.00;101595.88;5052739;28;20444;-65
2023/01/26 01:13:52;;;;;;;47.75;5.53;;;;;;;8.71;100.00;101587.50;5054108;28;20547;-65
2023/01/26 01:16:18;;;;;;;47.05;4.78;;;;;;;8.70;100.00;101591.16;5055126;28;20341;-65
2023/01/26 01:18:44;;;;;;;36.78;4.80;;;;;;;8.71;100.00;101600.91;5053731;28;20060;-65
2023/01/26 01:21:12;;;;;;;46.63;4.63;;;;;;;8.65;100.00;101585.47;5037238;28;20039;-65
2023/01/26 01:23:38;;;;;;;41.58;4.47;;;;;;;8.74;100.00;101597.88;5053067;28;20055;-65
2023/01/26 01:26:05;;;;;;;39.83;5.22;;;;;;;8.26;100.00;101531.59;5054437;28;20021;-65
2023/01/26 01:28:31;;;;;;;47.22;4.22;;;;;;;8.66;100.00;101595.19;5053651;28;20086;-65
2023/01/26 01:30:57;;;;;;;45.10;5.15;;;;;;;8.60;100.00;101593.16;5052543;28;20097;-65
2023/01/26 01:33:23;;;;;;;34.90;4.22;;;;;;;8.66;100.00;101600.56;5051796;28;20484;-65
2023/01/26 01:35:58;;;;;;;45.63;4.50;;;;;;;8.71;100.00;101595.53;5035351;28;20468;-64
2023/01/26 01:38:24;;;;;;;48.25;5.00;;;;;;;8.66;100.00;101595.19;5053280;28;20036;-65
2023/01/26 01:40:50;;;;;;;47.17;4.70;;;;;;;8.64;100.00;101598.06;5052702;28;20029;-65
2023/01/26 01:43:16;;;;;;;42.60;5.07;;;;;;;8.69;100.00;101600.22;5052486;28;20029;-65
2023/01/26 01:45:44;;;;;;;48.60;4.85;;;;;;;8.67;100.00;101599.53;5051614;28;20439;-65
2023/01/26 01:48:19;;;;;;;51.33;4.40;;;;;;;8.69;100.00;101592.16;5051943;28;20028;-65
2023/01/26 01:50:47;;;;;;;49.70;4.22;;;;;;;8.64;100.00;101599.88;5051858;28;20491;-65
2023/01/26 01:53:23;;;;;;;33.60;3.67;;;;;;;8.63;100.00;101598.19;5051299;28;20627;-65
2023/01/26 01:55:51;;;;;;;47.08;4.65;;;;;;;8.50;100.00;101573.72;5052732;28;20102;-66
2023/01/26 01:58:17;;;;;;;43.45;4.15;;;;;;;8.65;100.00;101606.94;5034859;28;20052;-65
2023/01/26 02:00:42;;;;;;;38.72;4.10;;;;;;;8.63;100.00;101606.25;5052218;28;20476;-65
2023/01/26 02:03:13;;;;;;;49.80;4.28;;;;;;;8.56;100.00;101607.94;5052777;28;20120;-65
2023/01/26 02:05:54;;;;;;;34.58;4.15;;;;;;;8.56;100.00;101607.94;5052727;28;20017;-65
2023/01/26 02:08:24;;;;;;;39.03;4.28;;;;;;;8.53;100.00;101602.88;5051842;28;20048;-65
2023/01/26 02:10:53;;;;;;;44.58;4.53;;;;;;;8.47;100.00;101605.22;5052890;28;20035;-65
2023/01/26 02:13:21;;;;;;;37.22;3.55;;;;;;;8.53;100.00;101608.25;5053405;28;20486;-65
2023/01/26 02:15:47;;;;;;;34.10;3.70;;;;;;;8.42;100.00;101582.59;5051163;28;20364;-65
2023/01/26 02:18:15;;;;;;;42.28;4.20;;;;;;;8.54;100.00;101591.97;5052779;28;20135;-65
2023/01/26 02:20:49;;;;;;;37.42;4.18;;;;;;;8.52;100.00;101599.38;5051384;28;20415;-65
2023/01/26 02:23:30;;;;;;;32.92;3.58;;;;;;;8.51;100.00;101608.44;5051459;28;20017;-65
2023/01/26 02:26:01;;;;;;;30.15;3.45;;;;;;;8.47;100.00;101591.81;5052577;28;20107;-65
2023/01/26 02:28:27;;;;;;;28.70;3.22;;;;;;;8.59;100.00;101604.91;5052502;28;20084;-65
2023/01/26 02:30:54;;;;;;;29.45;3.10;;;;;;;8.56;100.00;101598.03;5053961;28;20086;-64
2023/01/26 02:33:25;;;;;;;25.08;3.22;;;;;;;8.64;100.00;101599.88;5061095;28;20384;-65
2023/01/26 02:35:51;;;;;;;32.95;3.30;;;;;;;8.63;100.00;101607.09;5062223;28;20024;-65
2023/01/26 02:38:19;;;;;;;25.60;2.70;;;;;;;8.62;100.00;101605.41;5058841;28;20035;-65
2023/01/26 02:40:47;;;;;;;30.05;3.65;;;;;;;8.54;100.00;101604.56;5059096;28;20033;-65
2023/01/26 02:43:13;;;;;;;20.52;2.53;;;;;;;8.52;100.00;101602.06;5059233;28;20120;-65
2023/01/26 02:45:39;;;;;;;26.85;2.55;;;;;;;8.52;100.00;101615.47;5057808;28;20052;-65
2023/01/26 02:48:06;;;;;;;23.02;2.60;;;;;;;8.47;100.00;101609.75;5060211;28;20551;-65
2023/01/26 02:50:32;;;;;;;22.60;3.30;;;;;;;8.20;100.00;101578.66;5043577;28;20028;-65
2023/01/26 02:52:58;;;;;;;32.25;3.58;;;;;;;8.31;100.00;101612.38;5057655;28;20044;-64
2023/01/26 02:55:25;;;;;;;23.42;2.83;;;;;;;8.33;100.00;101619.25;5058900;28;20097;-64
2023/01/26 02:57:56;;;;;;;20.58;2.55;;;;;;;8.37;100.00;101611.72;5058947;28;20048;-65
2023/01/26 03:00:35;;;;;;;15.63;2.15;;;;;;;8.34;100.00;101609.34;5059001;28;20108;-65
2023/01/26 03:03:09;;;;;;;18.20;2.08;;;;;;;8.26;100.00;101614.72;5058580;28;20388;-65
2023/01/26 03:05:35;;;;;;;15.65;2.17;;;;;;;8.28;100.00;101616.25;5058643;28;20021;-65
2023/01/26 03:08:00;;;;;;;15.32;1.92;;;;;;;8.17;100.00;101611.16;5058452;28;20045;-65
2023/01/26 03:10:26;;;;;;;22.73;2.50;;;;;;;8.21;100.00;101617.88;5058192;28;20029;-65
2023/01/26 03:12:52;;;;;;;13.70;1.52;;;;;;;8.22;100.00;101623.09;5058807;28;20098;-65
2023/01/26 03:29:02;;;;;;;18.92;1.83;;;;;;;8.00;100.00;101632.56;5058996;28;20575;-65
2023/01/26 03:31:28;;;;;;;12.88;1.60;;;;;;;7.97;100.00;101635.56;5056785;28;20073;-65
2023/01/26 03:33:53;;;;;;;15.82;1.58;;;;;;;7.87;100.00;101642.06;5058642;28;20097;-65
2023/01/26 03:36:18;;;;;;;15.00;2.45;;;;;;;7.92;100.00;101639.75;5057840;28;20391;-65
2023/01/26 03:38:44;;;;;;;19.77;1.60;;;;;;;7.94;100.00;101637.72;5058679;28;20471;-65
2023/01/26 03:57:32;;;;;;;17.50;2.08;;;;;;;7.71;100.00;101646.31;5054583;28;20067;-64
2023/01/26 03:59:58;;;;;;;18.75;2.00;;;;;;;7.68;100.00;101643.13;5021135;28;20101;-65
2023/01/26 04:10:35;;;;;;;22.88;2.08;;;;;;;7.51;100.00;101650.22;5054223;28;20036;-64
2023/01/26 04:21:32;;;;;;;20.63;2.22;;;;;;;7.44;99.53;101652.69;5055241;28;20143;-65
2023/01/26 04:23:57;;;;;;;13.73;1.40;;;;;;;7.37;99.42;101651.66;5053548;28;20033;-65
2023/01/26 04:26:25;;;;;;;17.60;1.40;;;;;;;7.31;99.26;101657.63;5055029;28;20071;-65
2023/01/26 04:28:51;;;;;;;15.48;1.40;;;;;;;7.26;98.82;101660.78;5054311;28;20032;-65
2023/01/26 04:31:16;;;;;;;16.55;1.65;;;;;;;7.00;98.81;101625.97;5053578;28;20036;-64
2023/01/26 04:33:42;;;;;;;17.80;1.73;;;;;;;7.17;98.99;101659.03;5052995;28;20028;-65
2023/01/26 04:36:09;;;;;;;14.27;1.45;;;;;;;7.11;99.02;101661.50;5053272;28;20476;-65
2023/01/26 04:38:35;;;;;;;17.00;1.90;;;;;;;7.05;98.70;101658.47;5053021;28;20514;-65
2023/01/26 04:41:01;;;;;;;10.88;1.42;;;;;;;6.89;98.69;101641.41;5054697;28;20029;-64
2023/01/26 04:43:26;;;;;;;15.95;1.80;;;;;;;7.03;98.97;101660.44;5055111;28;20036;-65
2023/01/26 04:45:59;;;;;;;18.88;2.00;;;;;;;7.06;98.77;101664.66;5036450;28;20029;-65
2023/01/26 04:48:26;;;;;;;10.65;1.52;;;;;;;7.01;98.82;101657.06;5054386;28;20570;-65
2023/01/26 04:50:54;;;;;;;15.55;1.17;;;;;;;6.94;98.89;101653.34;5053214;28;20033;-65
2023/01/26 04:53:19;;;;;;;11.18;1.52;;;;;;;6.87;99.23;101660.31;5053140;28;20033;-65
2023/01/26 04:55:44;;;;;;;13.50;1.50;;;;;;;6.85;98.83;101656.09;5054331;28;20167;-65
2023/01/26 04:58:10;;;;;;;18.15;2.10;;;;;;;6.77;98.61;101655.03;5053608;28;20052;-65
2023/01/26 05:00:35;;;;;;;18.30;1.90;;;;;;;6.78;98.40;101661.22;5053033;28;20396;-65
2023/01/26 05:03:01;;;;;;;13.93;1.63;;;;;;;6.74;98.11;101675.91;5054286;28;20036;-65
2023/01/26 05:05:26;;;;;;;13.85;1.67;;;;;;;6.70;98.31;101682.56;5053772;28;20060;-65
2023/01/26 05:07:52;;;;;;;14.32;1.58;;;;;;;6.64;98.38;101692.03;5053553;28;20044;-64
2023/01/26 05:10:17;;;;;;;19.60;1.77;;;;;;;6.40;98.28;101663.19;5035876;28;20029;-65
2023/01/26 05:12:43;;;;;;;14.27;1.45;;;;;;;6.43;98.37;101694.97;5052196;28;20039;-65
2023/01/26 05:15:09;;;;;;;15.32;1.58;;;;;;;6.37;98.17;101697.41;5052134;28;20491;-65
2023/01/26 05:17:35;;;;;;;17.98;2.05;;;;;;;6.35;98.30;101697.53;5052648;28;20061;-65
2023/01/26 05:20:00;;;;;;;11.88;1.27;;;;;;;6.43;98.36;101705.69;5054194;28;20443;-65
2023/01/26 05:22:27;;;;;;;14.38;1.65;;;;;;;6.42;98.24;101703.97;5053941;28;20115;-67
2023/01/26 05:24:52;;;;;;;12.73;1.85;;;;;;;6.36;97.85;101712.63;5055227;28;20029;-68
2023/01/26 05:27:21;;;;;;;17.35;1.60;;;;;;;6.23;97.94;101706.78;5072069;28;20064;-67
2023/01/26 05:29:46;;;;;;;18.95;1.80;;;;;;;6.10;98.00;101681.22;5067333;28;20106;-68
2023/01/26 05:32:12;;;;;;;13.40;1.35;;;;;;;6.21;98.11;101706.06;5036416;28;20438;-66
2023/01/26 05:34:38;;;;;;;14.40;1.50;;;;;;;6.14;98.09;101713.84;5056389;28;20167;-67
2023/01/26 05:37:04;;;;;;;11.70;1.40;;;;;;;6.10;98.19;101720.47;5052996;28;20151;-67
2023/01/26 05:39:29;;;;;;;13.50;1.58;;;;;;;6.09;98.20;101722.31;5052845;28;20025;-67
2023/01/26 05:41:55;;;;;;;13.55;1.83;;;;;;;6.01;97.73;101700.81;5053200;28;20025;-67
2023/01/26 05:44:22;;;;;;;9.80;1.30;;;;;;;6.04;98.42;101716.56;5053666;28;20029;-66
2023/01/26 05:46:47;;;;;;;11.25;1.42;;;;;;;6.07;98.38;101729.63;5053049;28;20031;-66
2023/01/26 05:49:13;;;;;;;10.63;1.65;;;;;;;6.05;98.23;101722.72;5051901;28;20123;-66
2023/01/26 05:51:39;;;;;;;16.45;1.77;;;;;;;6.07;98.33;101737.63;5051041;28;20033;-66
2023/01/26 05:54:05;;;;;;;12.73;1.30;;;;;;;6.01;97.94;101745.41;5052945;28;20048;-67
2023/01/26 05:56:30;;;;;;;12.45;2.08;;;;;;;5.92;97.88;101752.41;5035517;28;20052;-67
2023/01/26 05:58:55;;;;;;;10.00;1.40;;;;;;;5.86;97.88;101759.19;5034867;28;20033;-67
2023/01/26 06:01:21;;;;;;;10.45;1.55;;;;;;;5.83;97.86;101767.50;5051775;28;20037;-67
2023/01/26 06:03:46;;;;;;;14.10;1.58;;;;;;;5.82;98.01;101770.28;5052778;28;20434;-67
2023/01/26 06:06:12;;;;;;;14.52;1.77;;;;;;;5.79;97.54;101770.59;5050850;28;20089;-66
2023/01/26 06:08:37;;;;;;;17.08;1.75;;;;;;;5.78;97.74;101766.25;5034805;28;20132;-66
2023/01/26 06:11:03;;;;;;;13.77;1.73;;;;;;;5.69;98.15;101762.59;5050842;28;20111;-67
2023/01/26 06:13:28;;;;;;;19.58;2.08;;;;;;;5.67;98.77;101769.09;5051104;28;20495;-67
2023/01/26 06:15:54;;;;;;;11.15;1.50;;;;;;;5.70;98.43;101768.81;5050735;28;20090;-67
2023/01/26 06:18:19;;;;;;;13.48;1.88;;;;;;;5.73;98.17;101779.16;5050093;28;20111;-67
2023/01/26 06:20:44;;;;;;;13.40;1.63;;;;;;;5.69;98.43;101775.94;5050750;28;20128;-67
2023/01/26 06:23:11;;;;;;;11.60;1.15;;;;;;;5.70;98.47;101774.13;5051506;28;20031;-67
2023/01/26 06:25:39;;;;;;;11.20;1.40;;;;;;;5.62;98.03;101767.66;5049571;28;20033;-67
2023/01/26 06:28:05;;;;;;;15.82;1.83;;;;;;;5.61;98.15;101778.50;5050884;28;20396;-67
2023/01/26 06:30:31;;;;;;;12.10;1.73;;;;;;;5.64;98.29;101781.72;5053036;28;20040;-67
2023/01/26 06:32:56;;;;;;;12.98;1.60;;;;;;;5.60;98.12;101772.31;5052338;28;20033;-67
2023/01/26 06:35:21;;;;;;;14.38;1.90;;;;;;;5.58;97.55;101787.63;5034235;28;20518;-67
2023/01/26 06:37:51;;;;;;;6.28;1.27;;;;;;;5.57;97.72;101787.78;5033663;28;20652;-67
2023/01/26 06:40:18;;;;;;;7.57;1.10;;;;;;;5.53;97.68;101802.38;5052024;28;20518;-67
2023/01/26 06:42:50;;;;;;;15.93;1.98;;;;;;;5.50;97.61;101813.38;5052813;28;20048;-67
2023/01/26 06:45:16;;;;;;;13.82;1.60;;;;;;;5.44;97.06;101801.41;5064114;28;20079;-68
2023/01/26 06:47:46;;;;;;;13.90;1.50;;;;;;;5.40;96.98;101805.38;5072798;28;20024;-67
2023/01/26 06:50:15;;;;;;;11.40;1.55;;;;;;;5.35;97.29;101802.25;5056959;28;20036;-67
2023/01/26 06:52:43;;;;;;;8.57;1.63;;;;;;;5.31;97.01;101812.38;5055261;28;20071;-67
2023/01/26 06:55:19;;;;;;;14.02;1.83;;;;;;;5.23;96.84;101811.38;5054655;28;20159;-68
2023/01/26 06:57:46;;;;;;;11.65;2.38;;;;;;;5.29;96.65;101822.34;5052282;28;20037;-67
2023/01/26 07:00:12;;;;;;;11.38;1.50;;;;;;;5.24;96.87;101831.75;5018412;28;20048;-68
2023/01/26 07:02:38;;;;;;;8.90;1.45;;;;;;;5.15;97.38;101825.41;5052445;28;20060;-67
2023/01/26 07:05:04;;;;;;;11.75;1.92;;;;;;;5.15;97.61;101833.41;5034278;28;20138;-67
2023/01/26 07:07:29;;;;;;;10.95;1.50;;;;;;;5.10;97.32;101833.84;5051464;28;20695;-66
2023/01/26 07:09:55;;;;;;;13.73;1.40;;;;;;;5.07;97.16;101855.47;5051629;28;20041;-66
2023/01/26 07:12:20;;;;;;;10.50;1.40;;;;;;;5.03;98.00;101855.84;5051773;28;20479;-66
2023/01/26 07:14:46;;;;;;;11.40;1.73;;;;;;;4.91;97.91;101871.16;5052312;28;20399;-67
2023/01/26 07:17:11;;;;;;;8.57;1.33;;;;;;;4.81;98.38;101881.78;5052026;28;20047;-66
2023/01/26 07:19:37;;;;;;;10.40;1.90;;;;;;;4.73;97.94;101892.25;5054537;28;20056;-66
2023/01/26 07:22:03;;;;;;;9.82;1.70;;;;;;;4.74;98.13;101890.47;5055708;28;20125;-67
2023/01/26 07:24:28;;;;;;;10.32;2.15;;;;;;;4.71;98.20;101891.56;5054553;28;20024;-67
2023/01/26 07:26:55;;;;;;;14.95;1.92;;;;;;;4.98;98.33;101917.63;5052151;28;20324;-66
2023/01/26 07:29:20;;;;;;;13.75;1.92;;;;;;;5.06;98.47;101907.09;5053863;28;20021;-66
2023/01/26 07:31:46;;;;;;;10.95;2.10;;;;;;;5.06;98.17;101874.25;5053986;28;20028;-66
2023/01/26 07:34:12;;;;;;;7.50;1.95;;;;;;;5.30;98.27;101911.28;5053609;28;20029;-67
2023/01/26 07:36:37;;;;;;;7.57;1.80;;;;;;;5.32;98.57;101915.47;5052825;28;20033;-66
2023/01/26 07:39:04;;;;;;;11.98;2.10;;;;;;;5.34;98.56;101910.00;5054460;28;20468;-66
2023/01/26 07:41:30;;;;;;;14.23;2.05;;;;;;;5.42;98.35;101915.47;5055822;28;20099;-67
2023/01/26 07:43:55;;;;;;;9.48;1.77;;;;;;;5.44;98.49;101918.88;5055856;28;20056;-67
2023/01/26 07:46:21;;;;;;;14.95;3.05;;;;;;;5.30;98.96;101912.09;5056244;28;20085;-67
2023/01/26 07:48:46;;;;;;;9.23;2.05;;;;;;;5.29;100.00;101930.91;5054015;28;20398;-66
2023/01/26 07:51:11;;;;;;;9.02;1.65;;;;;;;5.49;99.58;101935.28;5055591;28;20040;-67
2023/01/26 07:53:42;;;;;;;9.80;1.80;;;;;;;5.46;99.27;101935.56;5055032;28;20459;-66
2023/01/26 07:56:13;;;;;;;11.80;1.70;;;;;;;5.47;99.63;101931.09;5055455;28;20080;-66
2023/01/26 07:58:39;;;;;;;6.20;1.90;;;;;;;5.49;99.65;101937.97;5053659;28;20043;-66
2023/01/26 08:01:09;;;;;;;8.00;2.00;;;;;;;5.52;99.95;101948.38;5055008;28;20029;-66
2023/01/26 08:03:34;;;;;;;7.22;2.20;;;;;;;5.60;99.41;101961.88;5054897;28;20025;-66
2023/01/26 08:06:00;;;;;;;6.20;1.88;;;;;;;5.63;98.73;101958.94;5054464;28;20499;-66
2023/01/26 08:08:25;;;;;;;11.82;2.22;;;;;;;5.49;100.00;101961.16;5057334;28;20040;-67
2023/01/26 08:10:54;;;;;;;7.38;1.80;;;;;;;5.69;100.00;101960.19;5075010;28;20103;-67
2023/01/26 08:13:19;;;;;;;7.97;1.90;;;;;;;5.80;98.98;101970.78;5073001;28;20032;-67
2023/01/26 08:15:44;;;;;;;5.32;1.98;;;;;;;5.87;98.84;101966.56;5054999;28;20415;-66
2023/01/26 08:18:10;;;;;;;6.03;1.98;;;;;;;5.84;98.53;101961.50;5040656;28;20053;-66
2023/01/26 08:20:35;;;;;;;5.75;2.10;;;;;;;5.88;98.99;101962.88;5058522;28;20491;-67
2023/01/26 08:23:02;;;;;;;6.70;2.13;;;;;;;5.88;98.89;101970.91;5054346;28;20416;-66
2023/01/26 08:25:27;;;;;;;5.03;2.08;;;;;;;5.85;99.21;101973.00;5054186;28;20044;-66
2023/01/26 08:27:54;;;;;;;7.40;2.20;;;;;;;5.83;99.23;101985.69;5054265;28;20032;-66
2023/01/26 08:30:19;;;;;;;7.03;2.10;;;;;;;5.85;99.24;101989.88;5037023;28;20024;-66
2023/01/26 08:32:44;;;;;;;6.35;2.25;;;;;;;5.87;98.94;101992.44;5054518;28;20546;-66
2023/01/26 08:35:10;;;;;;;5.95;1.80;;;;;;;5.75;99.51;101999.72;5054690;28;20483;-66
2023/01/26 08:37:35;;;;;;;5.40;1.70;;;;;;;5.83;99.12;101991.03;5053325;28;20033;-66
2023/01/26 08:40:01;;;;;;;6.88;1.83;;;;;;;5.82;99.16;102011.53;5054395;28;20037;-66
2023/01/26 08:42:26;;;;;;;5.45;1.85;;;;;;;5.75;99.85;102004.22;5054509;28;20052;-67
2023/01/26 08:44:52;;;;;;;3.42;1.55;;;;;;;5.53;100.00;101990.13;5054143;28;20037;-66
2023/01/26 08:47:17;;;;;;;3.47;1.20;;;;;;;5.78;100.00;102019.97;5052858;28;20048;-66
2023/01/26 08:49:42;;;;;;;4.80;1.77;;;;;;;5.93;99.59;102018.63;5053139;28;20032;-67
2023/01/26 08:52:08;;;;;;;3.00;1.30;;;;;;;5.85;99.10;102005.06;5036386;28;20055;-67
2023/01/26 08:54:33;;;;;;;4.90;1.40;;;;;;;5.74;99.64;102002.53;5036085;28;20425;-66
2023/01/26 08:56:58;;;;;;;4.32;1.52;;;;;;;5.92;99.52;102032.91;5036218;28;20495;-66
2023/01/26 08:59:24;;;;;;;4.90;1.75;;;;;;;5.93;99.65;102023.09;5054396;28;20498;-66
2023/01/26 09:01:49;;;;;;;6.85;1.50;;;;;;;5.97;99.57;102032.53;5053788;28;20029;-67
2023/01/26 09:04:15;;;;;;;3.75;1.35;;;;;;;5.98;99.38;102036.91;5036052;28;20045;-66
2023/01/26 09:06:40;;;;;;;3.45;1.52;;;;;;;5.77;100.00;102028.97;5053903;28;20110;-66
2023/01/26 09:09:08;;;;;;;2.92;1.40;;;;;;;5.78;100.00;102030.66;5052727;28;20112;-66
2023/01/26 09:11:34;;;;;;;4.32;1.50;;;;;;;5.70;100.00;102025.16;5053954;28;20136;-66
2023/01/26 09:13:59;;;;;;;3.88;1.77;;;;;;;5.69;100.00;102024.28;5035610;28;20178;-66
2023/01/26 09:16:24;;;;;;;5.55;1.60;;;;;;;5.89;100.00;102028.72;5052128;28;20442;-67
2023/01/26 09:18:52;;;;;;;5.85;1.80;;;;;;;5.81;100.00;102031.22;5051308;28;20141;-66
2023/01/26 09:21:18;;;;;;;3.40;1.52;;;;;;;5.53;100.00;102043.53;5053149;28;20075;-66
2023/01/26 09:23:45;;;;;;;5.20;1.75;;;;;;;5.73;100.00;102049.75;5053429;28;20100;-66
2023/01/26 09:26:10;;;;;;;2.70;1.60;;;;;;;5.79;100.00;102064.38;5052596;28;20453;-67
2023/01/26 09:28:36;;;;;;;4.35;1.20;;;;;;;5.65;100.00;102053.09;5053907;28;20028;-66
2023/01/26 09:31:06;;;;;;;2.88;1.38;;;;;;;5.61;100.00;102057.03;5054899;28;20050;-67
2023/01/26 09:33:32;;;;;;;2.60;1.40;;;;;;;5.62;100.00;102058.69;5069566;28;20037;-67
2023/01/26 09:36:09;;;;;;;4.35;1.08;;;;;;;5.58;100.00;102069.81;5071843;28;20077;-66
2023/01/26 09:38:35;;;;;;;1.55;0.90;;;;;;;5.64;100.00;102075.44;5053634;28;20028;-66
2023/01/26 09:41:13;;;;;;;3.78;1.05;;;;;;;5.54;100.00;102079.06;5054820;28;20533;-66
2023/01/26 09:43:52;;;;;;;1.95;1.10;;;;;;;5.53;100.00;102064.88;5054402;28;20388;-66
2023/01/26 09:47:01;;;;;;;1.73;1.00;;;;;;;5.77;100.00;102091.22;5053003;28;20025;-66
2023/01/26 09:49:55;;;;;;;2.13;0.90;;;;;;;5.77;100.00;102077.88;5014611;28;20025;-66
2023/01/26 09:52:32;;;;;;;1.20;0.63;;;;;;;5.90;100.00;102080.31;5014356;28;20037;-66
2023/01/26 09:55:01;;;;;;;1.45;0.65;;;;;;;5.75;100.00;102079.00;5047070;28;20041;-66
2023/01/26 09:57:54;;;;;;;1.63;0.85;;;;;;;5.63;100.00;102063.09;5052887;28;20426;-66
2023/01/26 10:00:46;;;;;;;0.73;0.45;;;;;;;5.88;99.58;102080.44;5053449;28;20033;-66
2023/01/26 10:03:35;;;;;;;0.90;0.60;;;;;;;5.89;99.62;102082.13;5052799;28;20035;-66
2023/01/26 10:06:27;;;;;;;1.23;0.65;;;;;;;6.02;98.45;102084.56;5053248;28;20064;-66
2023/01/26 10:08:56;;;;;;;1.40;0.70;;;;;;;5.88;98.44;102071.56;5051640;28;20028;-67
2023/01/26 10:11:27;;;;;;;2.17;0.70;;;;;;;6.02;98.73;102094.41;5053239;28;20025;-66
2023/01/26 10:13:59;;;;;;;1.00;0.70;;;;;;;6.45;98.21;102104.72;5052713;28;20032;-66
2023/01/26 10:16:25;;;;;;;1.52;0.60;;;;;;;6.29;97.21;102110.66;5052744;28;20032;-66
2023/01/26 10:18:58;;;;;;;0.68;0.43;;;;;;;6.32;96.46;102098.81;5051308;28;20057;-66
2023/01/26 10:21:29;;;;;;;3.92;0.80;;;;;;;6.13;97.65;102117.53;5052525;28;20445;-66
2023/01/26 10:23:59;;;;;;;1.63;0.60;;;;;;;6.20;96.61;102119.50;5051246;28;20062;-66
2023/01/26 10:26:30;;;;;;;1.60;0.60;;;;;;;6.28;95.93;102105.44;5051160;28;20033;-66
2023/01/26 10:28:56;;;;;;;1.27;0.57;;;;;;;6.38;95.95;102116.97;5035173;28;20071;-66
2023/01/26 10:31:32;;;;;;;0.93;0.47;;;;;;;6.09;96.69;102115.13;5051122;28;20064;-67
2023/01/26 10:34:11;;;;;;;2.40;0.50;;;;;;;6.38;96.20;102114.28;5051050;28;20036;-66
2023/01/26 10:36:36;;;;;;;1.52;0.40;;;;;;;6.17;96.13;102124.28;5052350;28;20028;-66
2023/01/26 10:39:07;;;;;;;0.63;0.30;;;;;;;6.30;96.08;102124.84;5051180;28;20024;-66
2023/01/26 10:41:34;;;;;;;1.92;0.40;;;;;;;6.15;95.74;102142.25;5051759;28;20040;-66
2023/01/26 10:44:24;;;;;;;4.30;0.40;;;;;;;6.46;95.30;102159.91;5050966;28;20032;-66
2023/01/26 10:47:03;;;;;;;1.05;0.40;;;;;;;6.51;95.56;102163.00;5052266;28;20103;-67
2023/01/26 10:49:28;;;;;;;0.80;0.40;;;;;;;6.20;95.25;102127.50;5050203;28;20033;-66
2023/01/26 10:52:14;;;;;;;0.57;0.35;;;;;;;6.35;94.31;102152.84;5070153;28;20021;-66
2023/01/26 10:54:42;;;;;;;1.58;0.40;;;;;;;6.43;94.58;102159.34;5075483;28;20083;-66
2023/01/26 10:57:14;;;;;;;0.20;0.20;;;;;;;6.44;95.43;102155.69;5057679;28;20017;-67
2023/01/26 11:00:06;;;;;;;0.40;0.20;;;;;;;6.32;95.00;102165.63;5059795;28;20037;-66
2023/01/26 11:02:35;;;;;;;0.47;0.20;;;;;;;6.48;93.63;102160.59;5056301;28;20047;-66
2023/01/26 11:05:06;;;;;;;0.60;0.20;;;;;;;6.37;93.44;102165.25;5055596;28;20479;-66
2023/01/26 11:07:44;;;;;;;1.13;0.40;;;;;;;6.76;92.72;102158.09;5055081;28;20033;-66
2023/01/26 11:10:30;;;;;;;0.40;0.25;;;;;;;6.66;92.40;102165.28;5055521;28;20107;-66
2023/01/26 11:13:18;;;;;;;2.35;0.30;;;;;;;6.53;92.41;102177.09;5056800;28;20020;-66
2023/01/26 11:15:47;;;;;;;0.57;0.30;;;;;;;6.39;92.74;102132.03;5054760;28;20102;-66
2023/01/26 11:18:15;;;;;;;0.22;0.20;;;;;;;6.73;91.84;102174.44;5057339;28;20097;-66
2023/01/26 11:20:52;;;;;;;0.20;0.20;;;;;;;6.84;91.37;102182.31;5056347;28;20440;-66
2023/01/26 11:23:33;;;;;;;0.35;0.10;;;;;;;6.68;90.57;102190.03;5055503;28;20068;-66
2023/01/26 11:26:23;;;;;;;0.17;0.13;;;;;;;6.46;90.54;102175.97;5055259;28;20028;-66
2023/01/26 11:28:57;;;;;;;0.65;0.28;;;;;;;6.61;90.14;102162.16;5053939;28;20036;-65
2023/01/26 11:31:29;;;;;;;;;;;;;;;6.89;89.10;102177.38;5055845;28;20534;-66
2023/01/26 11:34:00;;;;;;;1.02;0.30;;;;;;;6.85;89.51;102181.31;5054119;28;19913;-66
2023/01/26 11:36:51;;;;;;;0.50;0.20;;;;;;;6.92;88.17;102177.13;5054070;28;20109;-66
2023/01/26 11:39:38;;;;;;;0.47;0.10;;;;;;;6.96;88.68;102191.88;5055503;28;20051;-66
2023/01/26 11:42:13;;;;;;;0.47;0.10;;;;;;;6.79;87.89;102185.41;5055771;28;20070;-66
2023/01/26 11:44:41;;;;;;;3.50;0.20;;;;;;;7.06;86.95;102184.69;5055655;28;20082;-66
2023/01/26 11:47:17;;;;;;;0.50;0.20;;;;;;;6.97;86.88;102169.47;5055504;28;20094;-66
2023/01/26 11:50:15;;;;;;;0.40;0.22;;;;;;;7.00;86.20;102179.91;5055090;28;20105;-66
2023/01/26 11:53:06;;;;;;;0.43;0.10;;;;;;;7.23;85.61;102190.31;5055349;28;20585;-66
2023/01/26 11:55:53;;;;;;;0.10;0.10;;;;;;;7.26;86.02;102184.69;5055411;28;20423;-66
2023/01/26 11:58:34;;;;;;;1.73;0.20;;;;;;;7.24;85.85;102187.47;5055984;28;20033;-66
2023/01/26 12:01:05;;;;;;;0.30;0.17;;;;;;;7.06;85.45;102211.47;5055632;28;20400;-66
2023/01/26 12:03:51;;;;;;;1.00;0.22;;;;;;;6.90;84.97;102189.78;5055413;28;20028;-66
2023/01/26 12:06:37;;;;;;;0.10;0.03;;;;;;;7.10;84.71;102227.25;5055734;28;20025;-66
2023/01/26 12:09:20;;;;;;;0.40;0.10;;;;;;;7.15;84.64;102241.03;5068415;28;20043;-66
2023/01/26 12:12:09;;;;;;;1.45;0.20;;;;;;;7.04;83.06;102234.84;5064052;28;20025;-66
2023/01/26 12:14:50;;;;;;;0.75;0.10;;;;;;;7.16;83.75;102232.03;5055212;28;20028;-66
2023/01/26 12:17:53;;;;;;;0.55;0.10;;;;;;;7.28;82.79;102236.22;5056587;28;20112;-66
2023/01/26 12:20:21;;;;;;;0.82;0.20;;;;;;;7.28;83.31;102238.91;5053850;28;20049;-66
2023/01/26 12:23:01;;;;;;;1.17;0.20;;;;;;;7.26;81.32;102238.22;5054117;28;20082;-66